createdAt,value
2018-11-27T00:00:09.133Z,3.60
2018-11-27T00:03:38.940Z,3.60
2018-11-27T00:07:03.681Z,3.60
2018-11-27T00:10:29.318Z,3.70
2018-11-27T00:13:53.956Z,3.70
2018-11-27T00:17:18.624Z,3.70
2018-11-27T00:20:43.269Z,3.70
2018-11-27T00:24:08.002Z,3.70
2018-11-27T00:27:32.688Z,3.70
2018-11-27T00:30:57.364Z,3.70
2018-11-27T00:34:22.046Z,3.80
2018-11-27T00:37:46.730Z,3.80
2018-11-27T00:41:11.405Z,3.80
2018-11-27T00:44:36.073Z,3.80
2018-11-27T00:48:00.755Z,3.80
2018-11-27T00:51:25.463Z,3.90
2018-11-27T00:54:50.161Z,3.90
2018-11-27T00:58:14.794Z,3.90
2018-11-27T01:01:39.555Z,3.90
2018-11-27T01:05:04.306Z,3.90
2018-11-27T01:08:29.025Z,3.90
2018-11-27T01:11:53.717Z,3.90
2018-11-27T01:15:18.408Z,3.90
2018-11-27T01:18:43.076Z,3.90
2018-11-27T01:22:07.798Z,4.00
2018-11-27T01:25:32.478Z,4.00
2018-11-27T01:28:57.193Z,4.00
2018-11-27T01:32:21.892Z,3.90
2018-11-27T01:35:46.632Z,3.90
2018-11-27T01:39:11.357Z,3.90
2018-11-27T01:42:36.056Z,3.90
2018-11-27T01:46:00.701Z,3.90
2018-11-27T01:49:25.394Z,3.80
2018-11-27T01:52:50.309Z,3.80
2018-11-27T01:56:14.978Z,3.70
2018-11-27T01:59:39.726Z,3.70
2018-11-27T02:03:04.468Z,3.70
2018-11-27T02:06:29.144Z,3.70
2018-11-27T02:09:53.777Z,3.70
2018-11-27T02:13:18.510Z,3.70
2018-11-27T02:16:43.266Z,3.60
2018-11-27T02:20:10.681Z,3.60
2018-11-27T02:23:35.391Z,3.50
2018-11-27T02:27:00.074Z,3.50
2018-11-27T02:30:25.543Z,3.50
2018-11-27T02:33:50.192Z,3.40
2018-11-27T02:37:14.900Z,3.40
2018-11-27T02:40:39.643Z,3.50
2018-11-27T02:44:04.320Z,3.50
2018-11-27T02:47:28.994Z,3.50
2018-11-27T02:50:53.746Z,3.50
2018-11-27T02:54:18.405Z,3.50
2018-11-27T02:57:43.172Z,3.60
2018-11-27T03:01:07.888Z,3.60
2018-11-27T03:04:32.566Z,3.60
2018-11-27T03:07:57.343Z,3.60
2018-11-27T03:11:22.055Z,3.60
2018-11-27T03:14:46.745Z,3.60
2018-11-27T03:18:11.467Z,3.60
2018-11-27T03:21:36.199Z,3.60
2018-11-27T03:25:00.919Z,3.70
2018-11-27T03:28:25.626Z,3.70
2018-11-27T03:31:50.381Z,3.70
2018-11-27T03:35:16.692Z,3.80
2018-11-27T03:38:41.337Z,3.80
2018-11-27T03:42:06.339Z,3.80
2018-11-27T03:45:31.068Z,3.90
2018-11-27T03:48:55.773Z,3.90
2018-11-27T03:52:20.645Z,3.90
2018-11-27T03:55:45.388Z,4.00
2018-11-27T03:59:10.090Z,4.00
2018-11-27T04:02:34.784Z,4.00
2018-11-27T04:05:59.487Z,4.00
2018-11-27T04:09:24.150Z,4.10
2018-11-27T04:12:48.965Z,4.10
2018-11-27T04:16:13.705Z,4.00
2018-11-27T04:19:38.386Z,4.10
2018-11-27T04:23:03.081Z,4.10
2018-11-27T04:26:27.845Z,4.10
2018-11-27T04:29:52.533Z,4.10
2018-11-27T04:33:17.229Z,4.10
2018-11-27T04:36:41.894Z,4.10
2018-11-27T04:40:09.511Z,4.10
2018-11-27T04:43:34.216Z,4.10
2018-11-27T04:46:58.914Z,4.10
2018-11-27T04:50:23.696Z,4.10
2018-11-27T04:53:48.391Z,4.10
2018-11-27T04:57:13.053Z,4.20
2018-11-27T05:00:37.762Z,4.10
2018-11-27T05:04:02.492Z,4.10
2018-11-27T05:07:27.231Z,4.10
2018-11-27T05:10:52.585Z,4.10
2018-11-27T05:14:17.240Z,4.10
2018-11-27T05:17:47.724Z,4.10
2018-11-27T05:21:07.941Z,4.10
2018-11-27T05:24:32.625Z,4.10
2018-11-27T05:27:58.597Z,4.10
2018-11-27T05:31:23.293Z,4.10
2018-11-27T05:34:48.016Z,4.10
2018-11-27T05:38:12.712Z,4.00
2018-11-27T05:41:37.518Z,4.00
2018-11-27T05:45:02.258Z,4.10
2018-11-27T05:48:26.946Z,4.10
2018-11-27T05:51:51.635Z,4.10
2018-11-27T05:55:16.703Z,4.10
2018-11-27T05:58:41.486Z,4.10
2018-11-27T06:02:06.651Z,4.10
2018-11-27T06:05:31.434Z,4.10
2018-11-27T06:08:57.001Z,4.10
2018-11-27T06:12:20.885Z,4.10
2018-11-27T06:15:45.651Z,4.20
2018-11-27T06:19:10.359Z,4.10
2018-11-27T06:22:35.229Z,4.10
2018-11-27T06:25:59.942Z,4.10
2018-11-27T06:29:24.700Z,4.20
2018-11-27T06:32:49.473Z,4.10
2018-11-27T06:36:14.268Z,4.20
2018-11-27T06:39:39.072Z,4.30
2018-11-27T06:43:03.947Z,4.50
2018-11-27T06:46:28.710Z,4.40
2018-11-27T06:49:53.460Z,4.40
2018-11-27T06:53:18.302Z,4.30
2018-11-27T06:56:43.131Z,4.30
2018-11-27T07:00:18.798Z,4.40
2018-11-27T07:03:43.660Z,4.40
2018-11-27T07:07:08.527Z,4.30
2018-11-27T07:10:34.529Z,4.30
2018-11-27T07:13:59.430Z,4.40
2018-11-27T07:17:24.170Z,4.40
2018-11-27T07:20:49.133Z,4.40
2018-11-27T07:24:13.890Z,4.40
2018-11-27T07:27:51.347Z,4.40
2018-11-27T07:31:42.115Z,4.40
2018-11-27T07:35:08.845Z,4.40
2018-11-27T07:38:33.637Z,4.40
2018-11-27T07:41:58.427Z,4.50
2018-11-27T07:45:24.430Z,4.50
2018-11-27T07:48:50.032Z,4.50
2018-11-27T07:52:14.869Z,4.50
2018-11-27T07:55:39.687Z,4.50
2018-11-27T07:59:04.440Z,4.50
2018-11-27T08:02:29.381Z,4.50
2018-11-27T08:05:54.131Z,4.60
2018-11-27T08:09:18.889Z,4.70
2018-11-27T08:12:43.690Z,4.80
2018-11-27T08:16:08.647Z,4.80
2018-11-27T08:19:33.580Z,4.90
2018-11-27T08:23:00.583Z,5.00
2018-11-27T08:26:28.307Z,5.10
2018-11-27T08:29:53.107Z,5.10
2018-11-27T08:33:19.674Z,5.20
2018-11-27T08:36:45.613Z,5.20
2018-11-27T08:40:13.525Z,5.30
2018-11-27T08:43:38.303Z,5.30
2018-11-27T08:47:03.155Z,5.40
2018-11-27T08:50:28.858Z,5.50
2018-11-27T08:53:53.650Z,5.50
2018-11-27T08:57:18.399Z,5.60
2018-11-27T09:00:43.236Z,5.60
2018-11-27T09:04:08.117Z,5.70
2018-11-27T09:07:32.907Z,5.80
2018-11-27T09:10:57.637Z,5.80
2018-11-27T09:14:22.356Z,5.80
2018-11-27T09:17:51.460Z,5.90
2018-11-27T09:21:16.454Z,5.90
2018-11-27T09:24:41.234Z,5.90
2018-11-27T09:28:07.384Z,5.90
2018-11-27T09:31:38.724Z,5.90
2018-11-27T09:35:03.562Z,6.00
2018-11-27T09:38:28.315Z,6.10
2018-11-27T09:41:53.196Z,6.10
2018-11-27T09:45:22.258Z,6.30
2018-11-27T09:48:47.023Z,6.30
2018-11-27T09:52:11.878Z,6.30
2018-11-27T09:55:36.614Z,6.30
2018-11-27T09:59:01.491Z,6.40
2018-11-27T10:02:26.267Z,6.60
2018-11-27T10:05:51.069Z,6.80
2018-11-27T10:09:15.820Z,6.90
2018-11-27T10:12:40.748Z,7.00
2018-11-27T10:16:05.524Z,7.00
2018-11-27T10:19:30.237Z,7.10
2018-11-27T10:22:54.964Z,7.30
2018-11-27T10:26:19.700Z,7.50
2018-11-27T10:29:44.442Z,7.80
2018-11-27T10:33:11.228Z,8.00
2018-11-27T10:36:35.987Z,7.80
2018-11-27T10:40:00.698Z,7.70
2018-11-27T10:43:25.515Z,7.70
2018-11-27T10:46:50.287Z,7.50
2018-11-27T10:50:16.356Z,7.50
2018-11-27T10:53:41.073Z,7.60
2018-11-27T10:57:06.417Z,7.50
2018-11-27T11:00:36.202Z,7.40
2018-11-27T11:04:00.978Z,7.50
2018-11-27T11:07:25.722Z,7.50
2018-11-27T11:10:50.700Z,7.50
2018-11-27T11:14:15.426Z,7.40
2018-11-27T11:17:40.233Z,7.40
2018-11-27T11:21:05.112Z,7.30
2018-11-27T11:24:29.833Z,7.30
2018-11-27T11:27:57.437Z,7.20
2018-11-27T11:31:22.125Z,7.10
2018-11-27T11:34:46.855Z,7.10
2018-11-27T11:42:10.796Z,7.00
2018-11-27T11:50:09.748Z,6.90
2018-11-27T12:02:27.939Z,6.80
2018-11-27T12:05:54.366Z,6.80
2018-11-27T12:09:19.340Z,6.70
2018-11-27T12:12:45.600Z,6.80
2018-11-27T12:16:10.364Z,6.80
2018-11-27T12:19:35.150Z,6.80
2018-11-27T12:22:59.950Z,6.80
2018-11-27T12:26:24.841Z,6.90
2018-11-27T12:29:49.817Z,6.90
2018-11-27T12:33:14.782Z,6.90
2018-11-27T12:36:39.725Z,6.80
2018-11-27T12:40:05.300Z,6.80
2018-11-27T12:43:30.198Z,6.80
2018-11-27T12:46:55.226Z,6.90
2018-11-27T12:50:24.753Z,6.90
2018-11-27T12:53:56.821Z,6.90
2018-11-27T12:57:21.801Z,6.90
2018-11-27T13:00:52.178Z,7.00
2018-11-27T13:04:17.183Z,7.00
2018-11-27T13:07:43.009Z,7.00
2018-11-27T13:11:13.937Z,7.00
2018-11-27T13:14:39.432Z,7.00
2018-11-27T13:18:05.308Z,7.10
2018-11-27T13:21:30.673Z,7.30
2018-11-27T13:25:13.935Z,7.40
2018-11-27T13:28:40.956Z,7.50
2018-11-27T13:32:16.461Z,7.50
2018-11-27T13:39:47.333Z,7.90
2018-11-27T13:43:29.541Z,8.00
2018-11-27T13:46:54.777Z,8.00
2018-11-27T13:50:19.990Z,7.90
2018-11-27T13:53:55.073Z,7.80
2018-11-27T13:57:20.275Z,7.70
2018-11-27T14:00:46.171Z,7.60
2018-11-27T14:04:11.746Z,7.40
2018-11-27T14:07:37.503Z,7.30
2018-11-27T14:11:02.770Z,7.10
2018-11-27T14:14:28.174Z,7.00
2018-11-27T14:17:55.439Z,6.90
2018-11-27T14:21:28.364Z,6.80
2018-11-27T14:24:54.573Z,6.80
2018-11-27T14:28:21.873Z,6.70
2018-11-27T14:32:02.216Z,6.70
2018-11-27T14:35:28.444Z,6.70
2018-11-27T14:38:53.742Z,6.60
2018-11-27T14:42:19.670Z,6.60
2018-11-27T14:45:44.707Z,6.60
2018-11-27T14:49:13.699Z,6.60
2018-11-27T14:52:38.802Z,6.50
2018-11-27T14:56:03.508Z,6.40
2018-11-27T14:59:28.177Z,6.40
2018-11-27T15:02:53.043Z,6.30
2018-11-27T15:06:17.773Z,6.20
2018-11-27T15:09:42.545Z,6.20
2018-11-27T15:13:08.381Z,6.20
2018-11-27T15:16:34.877Z,6.20
2018-11-27T15:19:59.813Z,6.20
2018-11-27T15:23:24.645Z,6.20
2018-11-27T15:26:49.556Z,6.20
2018-11-27T15:30:23.390Z,6.20
2018-11-27T15:33:48.199Z,6.10
2018-11-27T15:37:12.926Z,6.10
2018-11-27T15:40:39.488Z,6.10
2018-11-27T15:44:04.318Z,6.00
2018-11-27T15:47:29.070Z,6.00
2018-11-27T15:50:53.885Z,6.00
2018-11-27T15:54:18.677Z,6.00
2018-11-27T15:57:43.657Z,6.00
2018-11-27T16:01:15.058Z,5.90
2018-11-27T16:04:39.834Z,5.90
2018-11-27T16:08:04.640Z,5.80
2018-11-27T16:11:29.387Z,5.70
2018-11-27T16:14:54.176Z,5.50
2018-11-27T16:18:18.967Z,5.20
2018-11-27T16:21:43.749Z,5.00
2018-11-27T16:25:11.237Z,4.90
2018-11-27T16:28:36.015Z,4.70
2018-11-27T16:32:00.772Z,4.60
2018-11-27T16:35:25.531Z,4.50
2018-11-27T16:38:56.708Z,4.40
2018-11-27T16:42:21.390Z,4.30
2018-11-27T16:45:46.150Z,4.20
2018-11-27T16:49:10.859Z,4.20
2018-11-27T16:52:35.559Z,4.10
2018-11-27T16:56:00.266Z,4.10
2018-11-27T16:59:25.067Z,4.10
2018-11-27T17:02:51.508Z,4.10
2018-11-27T17:06:16.279Z,4.00
2018-11-27T17:09:41.031Z,4.00
2018-11-27T17:13:08.528Z,4.00
2018-11-27T17:16:33.348Z,3.90
2018-11-27T17:19:58.130Z,3.90
2018-11-27T17:23:22.898Z,3.80
2018-11-27T17:26:47.737Z,3.70
2018-11-27T17:30:21.515Z,3.70
2018-11-27T17:34:05.050Z,3.60
2018-11-27T17:37:29.835Z,3.50
2018-11-27T17:40:54.799Z,3.40
2018-11-27T17:44:19.713Z,3.40
2018-11-27T17:47:45.449Z,3.40
2018-11-27T17:51:10.181Z,3.30
2018-11-27T17:54:35.463Z,3.30
2018-11-27T17:58:00.252Z,3.20
2018-11-27T18:01:25.012Z,3.20
2018-11-27T18:04:51.184Z,3.20
2018-11-27T18:08:15.873Z,3.10
2018-11-27T18:11:40.595Z,3.10
2018-11-27T18:15:07.610Z,3.00
2018-11-27T18:18:32.601Z,3.00
2018-11-27T18:21:57.477Z,2.90
2018-11-27T18:25:22.306Z,3.00
2018-11-27T18:28:49.077Z,3.00
2018-11-27T18:32:14.021Z,2.90
2018-11-27T18:35:38.807Z,2.90
2018-11-27T18:39:03.763Z,2.90
2018-11-27T18:42:28.503Z,2.80
2018-11-27T18:45:53.249Z,2.80
2018-11-27T18:49:18.015Z,2.80
2018-11-27T18:52:43.612Z,2.90
2018-11-27T18:56:08.351Z,2.80
2018-11-27T18:59:33.044Z,2.80
2018-11-27T19:02:57.987Z,2.80
2018-11-27T19:06:22.860Z,2.80
2018-11-27T19:09:47.943Z,2.80
2018-11-27T19:13:12.711Z,2.80
2018-11-27T19:16:37.474Z,2.70
2018-11-27T19:20:02.327Z,2.80
2018-11-27T19:23:27.779Z,2.90
2018-11-27T19:26:52.643Z,2.90
2018-11-27T19:30:19.889Z,2.90
2018-11-27T19:33:44.650Z,2.90
2018-11-27T19:37:09.390Z,2.90
2018-11-27T19:40:34.148Z,2.90
2018-11-27T19:43:58.918Z,2.90
2018-11-27T19:47:23.621Z,3.00
2018-11-27T19:50:49.395Z,3.10
2018-11-27T19:54:14.201Z,3.10
2018-11-27T19:57:39.699Z,3.10
2018-11-27T20:01:04.669Z,3.20
2018-11-27T20:04:29.411Z,3.20
2018-11-27T20:07:54.155Z,3.20
2018-11-27T20:11:18.966Z,3.30
2018-11-27T20:14:43.755Z,3.30
2018-11-27T20:18:08.701Z,3.30
2018-11-27T20:21:33.398Z,3.30
2018-11-27T20:24:58.233Z,3.30
2018-11-27T20:28:22.983Z,3.30
2018-11-27T20:31:47.697Z,3.20
2018-11-27T20:35:14.197Z,3.30
2018-11-27T20:38:38.924Z,3.30
2018-11-27T20:42:03.646Z,3.30
2018-11-27T20:45:28.535Z,3.20
2018-11-27T20:48:53.385Z,3.20
2018-11-27T20:52:18.161Z,3.20
2018-11-27T20:55:43.590Z,3.10
2018-11-27T20:59:08.409Z,3.10
2018-11-27T21:02:33.124Z,3.00
2018-11-27T21:05:57.799Z,3.00
2018-11-27T21:09:22.457Z,3.00
2018-11-27T21:12:47.302Z,3.00
2018-11-27T21:16:12.042Z,3.00
2018-11-27T21:19:36.777Z,3.00
2018-11-27T21:23:01.508Z,3.00
2018-11-27T21:26:26.271Z,3.00
2018-11-27T21:29:51.019Z,3.00
2018-11-27T21:33:16.439Z,3.00
2018-11-27T21:36:41.211Z,3.00
2018-11-27T21:40:08.301Z,2.90
2018-11-27T21:43:33.021Z,2.90
2018-11-27T21:46:57.735Z,2.90
2018-11-27T21:50:28.744Z,2.80
2018-11-27T21:53:53.554Z,2.80
2018-11-27T21:57:18.360Z,2.80
2018-11-27T22:00:43.862Z,2.70
2018-11-27T22:04:08.621Z,2.70
2018-11-27T22:07:33.442Z,2.60
2018-11-27T22:10:58.163Z,2.60
2018-11-27T22:14:22.898Z,2.60
2018-11-27T22:17:47.676Z,2.70
2018-11-27T22:21:13.395Z,2.70
2018-11-27T22:24:38.153Z,2.70
2018-11-27T22:28:02.892Z,2.70
2018-11-27T22:31:27.636Z,2.70
2018-11-27T22:34:52.345Z,2.60
2018-11-27T22:38:17.056Z,2.70
2018-11-27T22:41:41.919Z,2.60
2018-11-27T22:45:12.079Z,2.60
2018-11-27T22:48:36.837Z,2.60
2018-11-27T22:52:01.620Z,2.70
2018-11-27T22:55:26.364Z,2.70
2018-11-27T22:58:51.104Z,2.70
2018-11-27T23:02:15.847Z,2.70
2018-11-27T23:05:40.621Z,2.60
2018-11-27T23:09:08.594Z,2.60
2018-11-27T23:12:33.320Z,2.60
2018-11-27T23:15:58.015Z,2.60
2018-11-27T23:19:22.797Z,2.60
2018-11-27T23:22:47.564Z,2.60
2018-11-27T23:26:12.329Z,2.50
2018-11-27T23:29:37.048Z,2.60
2018-11-27T23:33:01.752Z,2.60
2018-11-27T23:36:26.403Z,2.60
2018-11-27T23:39:51.127Z,2.60
2018-11-27T23:43:15.923Z,2.60
2018-11-27T23:46:40.673Z,2.60
2018-11-27T23:50:06.503Z,2.60
2018-11-27T23:53:31.181Z,2.60
2018-11-27T23:56:55.913Z,2.60
